Página principal
METAR-TAF:

METAR-TAF

Aeroportos :

Cape Newenham, Alasca, Estados Unidos

latitude: 58-39N, longitude: 162-04W, altura: 165 m

Observação actual do tempo

O boletim foi feito há 38 minutos, às 16:55 UTC
Vento 8 kt de nordeste, variando entre norte e este
Temperatura 9°C
Humidade 81%
Pressão 1015 hPa
Visibilidade: 16.1 km
Nuvens fragmentadasa uma altura de 4600 ft
Encobertoa uma altura de 7500 ft

METAR: PAEH 201655Z AUTO 04008KT 010V090 10SM BKN046 OVC075 09/06 A2997 RMK AO2 DZB1549E1558SHRAB1558E1624 SLP151 T00930056

Hora: 09:33 (17:33 UTC)


TAF: em falta

Observações e previsões do tempo de mais de 4000 aeroportos (mensagens METAR e TAF).

As estações disponíveis são os pontos amarelos e vermelhos sobre o mapa.

Mova o rato sobre o mapa para ver o nome da estação.

Depois clique no ponto para visualizar as observações e previsões meteorológicas.

Para alterar o mapa : clique nos botões verdes com uma cruz preta para aumentar o zoom; no botão verde com uma pitada de zoom; ou nas setas verdes para mapas adjacentes.


METAR-TAF: